createdAt,value
2023-03-23T15:58:11.691Z,3.57
2023-03-23T16:00:40.068Z,4.00
2023-03-23T16:03:11.764Z,3.80
2023-03-23T16:05:39.622Z,3.80
2023-03-23T16:08:11.234Z,4.10
2023-03-23T16:10:38.511Z,4.07
2023-03-23T16:13:06.335Z,3.80
2023-03-23T16:15:33.485Z,4.07
2023-03-23T16:18:00.922Z,3.63
2023-03-23T16:20:30.470Z,3.90
2023-03-23T16:22:57.705Z,4.17
2023-03-23T16:25:25.067Z,3.77
2023-03-23T16:27:54.499Z,4.57
2023-03-23T16:30:25.648Z,5.00
2023-03-23T16:32:54.889Z,3.93
2023-03-23T16:35:24.432Z,4.00
2023-03-23T16:38:07.659Z,4.40
2023-03-23T16:40:38.903Z,4.07
2023-03-23T16:43:09.293Z,4.07
2023-03-23T16:45:43.728Z,5.30
2023-03-23T16:48:12.871Z,5.53
2023-03-23T16:50:40.760Z,4.70
2023-03-23T16:53:08.797Z,4.60
2023-03-23T16:55:37.405Z,4.23
2023-03-23T16:58:16.253Z,4.07
2023-03-23T17:00:47.678Z,3.77
2023-03-23T17:03:16.474Z,3.47
2023-03-23T17:05:45.278Z,4.40
2023-03-23T17:08:12.749Z,4.00
2023-03-23T17:10:41.187Z,3.97
2023-03-23T17:13:08.868Z,4.50
2023-03-23T17:15:41.826Z,4.17
2023-03-23T17:18:10.726Z,4.70
2023-03-23T17:20:38.428Z,4.73
2023-03-23T17:23:05.935Z,4.30
2023-03-23T17:25:33.150Z,4.80
2023-03-23T17:28:05.369Z,3.63
2023-03-23T17:30:33.453Z,4.23
2023-03-23T17:33:00.623Z,4.70
2023-03-23T17:35:27.932Z,5.07
2023-03-23T17:37:55.065Z,4.70
2023-03-23T17:40:22.277Z,4.50
2023-03-23T17:42:49.394Z,5.30
2023-03-23T17:45:16.718Z,5.90
2023-03-23T17:47:43.888Z,4.30
2023-03-23T17:50:12.799Z,5.27
2023-03-23T17:52:41.411Z,4.90
2023-03-23T17:55:08.721Z,4.73
2023-03-23T17:57:35.932Z,4.50
2023-03-23T18:00:07.357Z,4.73
2023-03-23T18:02:36.159Z,4.97
2023-03-23T18:05:03.519Z,4.87
2023-03-23T18:07:31.488Z,4.90
2023-03-23T18:09:59.984Z,4.93
2023-03-23T18:12:27.606Z,5.10
2023-03-23T18:14:58.628Z,4.80
2023-03-23T18:17:26.612Z,5.40
2023-03-23T18:19:54.507Z,5.77
2023-03-23T18:22:22.121Z,5.80
2023-03-23T18:24:49.771Z,5.20
2023-03-23T18:27:17.363Z,5.67
2023-03-23T18:29:44.525Z,4.90
2023-03-23T18:32:11.873Z,5.30
2023-03-23T18:34:41.701Z,5.63
2023-03-23T18:37:09.351Z,5.93
2023-03-23T18:39:38.034Z,5.70
2023-03-23T18:42:06.197Z,5.77
2023-03-23T18:44:33.816Z,5.60
2023-03-23T18:47:01.016Z,5.70
2023-03-23T18:49:29.194Z,5.40
2023-03-23T18:51:56.700Z,6.37
2023-03-23T18:54:23.818Z,6.00
2023-03-23T18:56:51.068Z,5.93
2023-03-23T18:59:18.199Z,6.10
2023-03-23T19:01:45.609Z,6.30
2023-03-23T19:04:13.657Z,5.57
2023-03-23T19:06:41.056Z,5.70
2023-03-23T19:09:08.255Z,6.70
2023-03-23T19:11:35.724Z,6.70
2023-03-23T19:14:03.810Z,6.40
2023-03-23T19:16:34.007Z,6.13
2023-03-23T19:19:02.380Z,6.07
2023-03-23T19:21:32.066Z,6.10
2023-03-23T19:24:00.799Z,5.53
2023-03-23T19:26:33.135Z,6.20
2023-03-23T19:31:32.576Z,4.87
2023-03-23T19:34:00.815Z,6.20
2023-03-23T19:36:28.367Z,6.03
2023-03-23T19:38:57.669Z,7.27
2023-03-23T19:41:27.589Z,6.80
2023-03-23T19:43:55.008Z,8.90
2023-03-23T19:46:22.280Z,9.00
2023-03-23T19:48:50.709Z,8.13
2023-03-23T19:51:21.146Z,7.20
2023-03-23T19:53:48.942Z,6.30
2023-03-23T19:56:18.640Z,5.80
2023-03-23T19:58:46.237Z,6.20
2023-03-23T20:01:13.718Z,6.50
2023-03-23T20:03:42.285Z,6.47
2023-03-23T20:06:12.595Z,6.40
2023-03-23T20:08:45.649Z,5.80
2023-03-23T20:11:17.780Z,6.30
2023-03-23T20:16:14.120Z,6.63
2023-03-23T20:18:41.763Z,5.70
2023-03-23T20:21:11.535Z,5.53
2023-03-23T20:23:40.315Z,6.00
2023-03-23T20:26:14.000Z,5.53
2023-03-23T20:28:42.767Z,5.37
2023-03-23T20:31:23.134Z,5.70
2023-03-23T20:34:00.630Z,5.70
2023-03-23T20:36:35.028Z,6.60
2023-03-23T20:39:10.583Z,5.33
2023-03-23T20:41:40.365Z,5.70
2023-03-23T20:44:14.382Z,6.37
2023-03-23T20:46:43.474Z,5.90
2023-03-23T20:49:12.009Z,5.50
2023-03-23T20:51:40.080Z,6.20
2023-03-23T20:54:07.383Z,5.50
2023-03-23T20:56:35.007Z,6.77
2023-03-23T20:59:02.801Z,6.10
2023-03-23T21:01:33.317Z,6.07
2023-03-23T21:04:03.339Z,5.90
2023-03-23T21:06:33.644Z,5.77
2023-03-23T21:09:01.038Z,7.60
2023-03-23T21:11:28.675Z,6.17
2023-03-23T21:13:56.627Z,6.40
2023-03-23T21:16:24.519Z,5.80
2023-03-23T21:18:52.152Z,6.47
2023-03-23T21:21:19.523Z,6.77
2023-03-23T21:23:52.102Z,6.50
2023-03-23T21:26:22.597Z,6.40
2023-03-23T21:28:50.948Z,6.17
2023-03-23T21:31:18.760Z,7.40
2023-03-23T21:33:46.280Z,6.77
2023-03-23T21:36:13.397Z,6.90
2023-03-23T21:38:41.056Z,6.90
2023-03-23T21:41:13.587Z,6.07
2023-03-23T21:43:41.244Z,6.87
2023-03-23T21:46:09.886Z,6.63
2023-03-23T21:48:41.599Z,5.90
2023-03-23T21:51:11.845Z,6.93
2023-03-23T21:53:39.414Z,6.10
2023-03-23T21:56:09.638Z,6.50
2023-03-23T21:58:38.156Z,6.90
2023-03-23T22:01:05.680Z,5.53
2023-03-23T22:03:35.295Z,6.20
2023-03-23T22:06:11.580Z,6.00
2023-03-23T22:08:41.297Z,5.73
2023-03-23T22:11:13.472Z,6.90
2023-03-23T22:13:42.177Z,6.00
2023-03-23T22:16:11.737Z,6.40
2023-03-23T22:18:40.374Z,5.77
2023-03-23T22:21:07.850Z,6.23
2023-03-23T22:23:35.672Z,6.00
2023-03-23T22:26:04.066Z,6.20
2023-03-23T22:28:31.889Z,7.53
2023-03-23T22:31:04.591Z,7.00
2023-03-23T22:33:32.658Z,6.60
2023-03-23T22:36:05.981Z,6.03
2023-03-23T22:38:34.994Z,6.47
2023-03-23T22:41:04.638Z,7.83
2023-03-23T22:43:31.796Z,7.37
2023-03-23T22:45:59.263Z,6.27
2023-03-23T22:48:27.532Z,6.87
2023-03-23T22:50:54.833Z,7.00
2023-03-23T22:53:22.355Z,7.07
2023-03-23T22:55:57.394Z,7.03
2023-03-23T22:58:28.233Z,5.97
2023-03-23T23:01:01.558Z,6.90
2023-03-23T23:03:30.053Z,5.00
2023-03-23T23:05:58.930Z,5.90
2023-03-23T23:08:27.566Z,6.10
2023-03-23T23:10:56.669Z,6.70
2023-03-23T23:13:24.442Z,6.80
2023-03-23T23:15:54.478Z,5.80
2023-03-23T23:18:21.966Z,6.50
2023-03-23T23:20:54.769Z,6.87
2023-03-23T23:23:23.565Z,6.37
2023-03-23T23:25:51.025Z,6.53
2023-03-23T23:28:19.351Z,6.37
2023-03-23T23:30:47.227Z,6.90
2023-03-23T23:33:14.718Z,7.30
2023-03-23T23:35:42.572Z,6.13
2023-03-23T23:38:12.506Z,6.77
2023-03-23T23:40:41.335Z,6.37
2023-03-23T23:43:13.215Z,6.60
2023-03-23T23:45:41.012Z,6.60
2023-03-23T23:48:09.087Z,6.57
2023-03-23T23:50:36.644Z,7.60
2023-03-23T23:53:04.905Z,7.43
2023-03-23T23:55:32.624Z,5.83
2023-03-23T23:57:59.914Z,6.70
